Airfield :
LOGIN :

Register | Disclaimer

   EN    FR    IT 

 










Legend :    VFR   Marginal VFR   IFR   Intensive IFR   Very Intensive IFR
Visi :
Ceiling :
>= 8 km
>= 3000ft
5 to 8 km
1000 to 3000 ft
1500m to 5 km
500 to 1000 ft
800 to 1500m
200 to 500 ft
< 800m
< 200 ft
Symbols :   Thunderstorms  Fog  Heavy snow  Heavy precipitations  Wind > 20 kt
SIGMETs :     Misc.  Thunderstorms  Icing  Turbulence  Mountain Waves  Volcanic Ashes






- Airport Elevation : 8 ft
- IATA code : JCU


GECE - Ceuta Heliport

CURRENT METAR :
  • 170100Z AUTO VRB01KT CAVOK 20/11 Q1012

EXPIRED METARs :
  • 170030Z AUTO VRB02KT 9999 FEW003 21/10 Q1013
  • 170000Z AUTO VRB02KT CAVOK 21/10 Q1013
  • 162330Z AUTO VRB02KT CAVOK 21/12 Q1013
  • 162300Z AUTO VRB01KT CAVOK 21/12 Q1013
  • 162230Z AUTO 07004KT 050V120 CAVOK 21/11 Q1013
  • 162200Z AUTO 05004KT CAVOK 22/09 Q1013
  • 162130Z AUTO 03006KT CAVOK 22/09 Q1013
  • 162100Z AUTO 09005KT 070V130 CAVOK 23/09 Q1013
  • 162030Z AUTO VRB03KT CAVOK 23/10 Q1012

TAF TAF GECE
Valid from the 16 at 15:00 until the 17 at 15:00 UTC


161400Z 1615/1715 30015KT CAVOK TX26/1714Z TN18/1707Z
PROB30
TEMPO 1615/1619 30015G25KT



MET'MAP, your aeronautical weather chart ! - Copyright ORBIFLY December 2007 - Disclaimer

ORBIFLY MET'MAP TEAM :

Programming & Development : Alexandra Zaïnal
Original concept : Baudouin d'Aumeries
Technical & hardware support : Manuel Goepfert
Assistance : Marc-Olivier Méhu




SOURCES & CREDITS :

   NOAA